createdAt,value
2019-01-30T08:49:54.596Z,51.20
2019-01-30T08:50:30.304Z,51.70
2019-01-30T08:51:06.857Z,51.60
2019-01-30T08:51:44.332Z,51.60
2019-01-30T08:52:20.410Z,51.60
2019-01-30T08:52:56.164Z,51.60
2019-01-30T08:53:33.121Z,51.70
2019-01-30T08:54:08.795Z,51.60
2019-01-30T08:54:44.859Z,51.70
2019-01-30T08:55:20.845Z,51.70
2019-01-30T08:55:56.984Z,51.60
2019-01-30T08:56:38.777Z,51.60
2019-01-30T08:57:10.121Z,51.70
2019-01-30T08:57:45.813Z,51.70
2019-01-30T08:58:22.314Z,51.60
2019-01-30T08:58:58.371Z,51.60
2019-01-30T08:59:34.380Z,51.60
2019-01-30T09:00:13.466Z,51.60
2019-01-30T09:00:49.167Z,51.50
2019-01-30T09:01:24.847Z,51.50
2019-01-30T09:02:00.681Z,51.50
2019-01-30T09:02:36.985Z,52.20
2019-01-30T09:03:14.889Z,51.50
2019-01-30T09:03:50.669Z,51.50
2019-01-30T09:04:28.733Z,51.50
2019-01-30T09:05:05.337Z,51.60
2019-01-30T09:05:41.034Z,51.40
2019-01-30T09:06:17.337Z,51.50
2019-01-30T09:06:53.589Z,51.60
2019-01-30T09:07:29.304Z,51.50
2019-01-30T09:08:05.037Z,51.40
2019-01-30T09:08:40.728Z,51.50
2019-01-30T09:09:16.496Z,51.40
2019-01-30T09:09:52.501Z,51.40
2019-01-30T09:10:28.736Z,51.60
2019-01-30T09:11:04.469Z,51.40
2019-01-30T09:11:40.142Z,51.30
2019-01-30T09:12:15.933Z,51.30
2019-01-30T09:12:51.630Z,51.30
2019-01-30T09:13:27.342Z,51.50
2019-01-30T09:14:03.117Z,51.50
2019-01-30T09:14:39.086Z,51.30
2019-01-30T09:15:16.696Z,51.40
2019-01-30T09:15:52.382Z,51.50
2019-01-30T09:16:28.085Z,51.30
2019-01-30T09:17:08.323Z,51.40
2019-01-30T09:17:41.583Z,51.40
2019-01-30T09:18:17.537Z,51.40
2019-01-30T09:18:53.237Z,51.40
2019-01-30T09:19:29.213Z,51.30
2019-01-30T09:20:06.332Z,51.40
2019-01-30T09:20:42.012Z,51.40
2019-01-30T09:21:18.602Z,51.50
2019-01-30T09:21:54.233Z,51.40
2019-01-30T09:22:31.005Z,51.40
2019-01-30T09:23:07.009Z,51.40
2019-01-30T09:23:42.987Z,51.50
2019-01-30T09:24:18.650Z,51.50
2019-01-30T09:24:55.406Z,51.50
2019-01-30T09:25:31.097Z,51.50
2019-01-30T09:26:06.784Z,51.50
2019-01-30T09:26:42.831Z,51.40
2019-01-30T09:27:18.840Z,51.40
2019-01-30T09:27:54.884Z,51.30
2019-01-30T09:28:30.562Z,51.30
2019-01-30T09:29:06.587Z,51.30
2019-01-30T09:29:42.278Z,51.40
2019-01-30T09:30:20.252Z,51.30
2019-01-30T09:30:55.967Z,51.40
2019-01-30T09:31:32.766Z,51.30
2019-01-30T09:32:08.736Z,51.90
2019-01-30T09:32:44.452Z,51.40
2019-01-30T09:33:25.900Z,51.40
2019-01-30T09:33:57.813Z,51.30
2019-01-30T09:34:33.541Z,51.30
2019-01-30T09:35:10.480Z,51.30
2019-01-30T09:35:46.190Z,51.30
2019-01-30T09:36:21.977Z,51.30
2019-01-30T09:36:57.761Z,51.20
2019-01-30T09:37:33.656Z,51.30
2019-01-30T09:38:09.764Z,51.20
2019-01-30T09:38:45.540Z,51.30
2019-01-30T09:39:21.232Z,51.20
2019-01-30T09:39:56.919Z,51.20
2019-01-30T09:40:32.816Z,51.20
2019-01-30T09:41:08.565Z,51.20
2019-01-30T09:41:44.643Z,51.30
2019-01-30T09:42:20.425Z,51.30
2019-01-30T09:42:56.281Z,51.30
2019-01-30T09:43:32.761Z,51.30
2019-01-30T09:44:09.112Z,51.30
2019-01-30T09:44:44.779Z,51.40
2019-01-30T09:45:21.960Z,51.50
2019-01-30T09:45:57.715Z,51.50
2019-01-30T09:46:33.444Z,51.50
2019-01-30T09:47:09.245Z,51.60
2019-01-30T09:47:45.491Z,51.60
2019-01-30T09:48:23.583Z,51.50
2019-01-30T09:48:59.314Z,51.50
2019-01-30T09:49:35.554Z,51.50
2019-01-30T09:50:13.531Z,51.60
2019-01-30T09:50:49.205Z,51.50
2019-01-30T09:51:24.876Z,51.50
2019-01-30T09:52:00.918Z,51.50
2019-01-30T09:52:36.695Z,51.50
2019-01-30T09:53:12.698Z,51.50
2019-01-30T09:53:48.394Z,51.40
2019-01-30T09:54:24.068Z,51.40
2019-01-30T09:54:59.736Z,51.50
2019-01-30T09:55:35.416Z,51.40
2019-01-30T09:56:12.181Z,51.40
2019-01-30T09:56:48.926Z,51.50
2019-01-30T09:57:24.738Z,51.40
2019-01-30T09:58:00.981Z,51.30
2019-01-30T09:58:37.253Z,51.30
2019-01-30T09:59:12.954Z,51.40
2019-01-30T09:59:48.618Z,51.30
2019-01-30T10:00:30.011Z,51.40
2019-01-30T10:01:18.234Z,51.30
2019-01-30T10:01:54.198Z,51.20
2019-01-30T10:14:48.747Z,51.30
2019-01-30T10:26:10.772Z,30.60
2019-01-30T10:26:46.443Z,34.30
2019-01-30T10:27:22.349Z,35.90
2019-01-30T10:27:57.996Z,37.70
2019-01-30T10:28:33.644Z,39.30
2019-01-30T10:29:09.575Z,40.40
2019-01-30T10:29:45.228Z,42.10
2019-01-30T10:30:27.126Z,43.90
2019-01-30T10:31:02.869Z,45.60
2019-01-30T10:31:39.147Z,47.50
2019-01-30T10:32:16.018Z,48.70
2019-01-30T10:32:51.664Z,50.00
2019-01-30T10:33:27.605Z,52.00
2019-01-30T10:34:03.309Z,53.80
2019-01-30T10:34:40.090Z,55.30
2019-01-30T10:35:15.751Z,57.10
2019-01-30T10:35:51.487Z,58.30
2019-01-30T10:36:27.311Z,59.20
2019-01-30T10:37:03.703Z,60.20
2019-01-30T10:37:39.907Z,62.10
2019-01-30T10:38:15.715Z,64.30
2019-01-30T10:38:51.368Z,65.00
2019-01-30T10:39:27.331Z,66.10
2019-01-30T10:40:05.531Z,67.70
2019-01-30T10:40:41.244Z,68.70
2019-01-30T10:41:16.915Z,70.00
2019-01-30T10:41:52.567Z,70.90
2019-01-30T10:42:28.223Z,72.40
2019-01-30T10:43:03.908Z,73.30
2019-01-30T10:43:39.561Z,75.20
2019-01-30T10:44:15.273Z,75.30
2019-01-30T10:44:50.988Z,76.00
2019-01-30T10:45:26.727Z,77.10
2019-01-30T10:46:02.399Z,78.30
2019-01-30T10:46:38.365Z,78.30
2019-01-30T10:47:14.400Z,78.70
2019-01-30T10:47:50.310Z,79.40
2019-01-30T10:48:26.263Z,79.40
2019-01-30T10:49:01.902Z,79.90
2019-01-30T10:49:37.571Z,80.60
2019-01-30T10:50:15.375Z,81.10
2019-01-30T10:50:51.010Z,81.60
2019-01-30T10:51:26.993Z,82.50
2019-01-30T10:52:02.707Z,82.30
2019-01-30T10:52:38.342Z,83.30
2019-01-30T10:53:14.012Z,84.20
2019-01-30T10:53:50.268Z,84.20
2019-01-30T10:54:25.911Z,84.70
2019-01-30T10:55:01.595Z,85.30
2019-01-30T10:55:37.349Z,86.40
2019-01-30T10:56:12.976Z,85.60
2019-01-30T10:56:48.660Z,85.30
2019-01-30T10:57:24.515Z,85.70
2019-01-30T10:58:02.107Z,86.30
2019-01-30T10:58:38.012Z,86.50
2019-01-30T10:59:13.676Z,87.00
2019-01-30T10:59:49.563Z,86.90
2019-01-30T11:00:28.027Z,86.90
2019-01-30T11:01:04.024Z,87.30
2019-01-30T11:01:39.659Z,87.70
2019-01-30T11:02:15.311Z,88.10
2019-01-30T11:02:50.980Z,88.70
2019-01-30T11:03:27.588Z,89.20
2019-01-30T11:04:03.247Z,89.70
2019-01-30T11:04:38.930Z,90.00
2019-01-30T11:05:15.513Z,89.50
2019-01-30T11:05:51.504Z,89.60
2019-01-30T11:06:27.552Z,89.40
2019-01-30T11:07:04.207Z,89.40
2019-01-30T11:07:40.137Z,88.80
2019-01-30T11:08:17.170Z,88.40
2019-01-30T11:08:52.858Z,88.80
2019-01-30T11:09:28.539Z,88.70
2019-01-30T11:10:04.923Z,88.90
2019-01-30T11:10:40.587Z,89.30
2019-01-30T11:11:16.267Z,89.30
2019-01-30T11:11:51.910Z,88.90
2019-01-30T11:12:27.640Z,89.10
2019-01-30T11:13:03.298Z,89.50
2019-01-30T11:13:39.229Z,89.50
2019-01-30T11:14:14.892Z,89.30
2019-01-30T11:14:50.838Z,89.40
2019-01-30T11:15:27.075Z,90.10
2019-01-30T11:16:02.768Z,90.00
2019-01-30T11:16:38.739Z,89.60
2019-01-30T11:17:14.424Z,89.30
2019-01-30T11:17:50.365Z,89.60
2019-01-30T11:18:26.023Z,89.70
2019-01-30T11:19:01.666Z,90.10
2019-01-30T11:19:37.307Z,90.60
2019-01-30T11:20:14.713Z,90.30
2019-01-30T11:20:50.351Z,90.30
2019-01-30T11:21:26.306Z,90.20
2019-01-30T11:22:02.231Z,90.00
2019-01-30T11:22:37.877Z,90.00
2019-01-30T11:23:13.515Z,89.80
2019-01-30T11:23:49.159Z,89.40
2019-01-30T11:24:24.842Z,89.40
2019-01-30T11:25:00.487Z,89.20
2019-01-30T11:25:37.159Z,89.80
2019-01-30T11:26:13.144Z,89.80
2019-01-30T11:26:48.796Z,90.20
2019-01-30T11:27:24.499Z,90.10
2019-01-30T11:28:00.215Z,90.00
2019-01-30T11:28:35.851Z,90.10
2019-01-30T11:29:11.519Z,90.40
2019-01-30T11:29:47.460Z,90.30
2019-01-30T11:30:23.091Z,90.60
2019-01-30T11:30:58.742Z,90.60
2019-01-30T11:31:34.643Z,90.60
2019-01-30T11:32:10.323Z,90.70
2019-01-30T11:32:45.990Z,90.80
2019-01-30T11:33:21.986Z,90.90
2019-01-30T11:34:07.013Z,90.60
2019-01-30T11:34:34.987Z,90.90
2019-01-30T11:35:10.672Z,91.00
2019-01-30T11:35:46.303Z,90.80
2019-01-30T11:36:21.932Z,90.50
2019-01-30T11:37:00.036Z,90.60
2019-01-30T11:37:35.278Z,90.80
2019-01-30T11:38:10.938Z,90.70
2019-01-30T11:38:46.900Z,91.00
2019-01-30T11:39:22.815Z,90.80
2019-01-30T11:39:59.043Z,90.60
2019-01-30T11:40:34.705Z,90.50
2019-01-30T11:41:10.355Z,90.60
2019-01-30T11:41:46.026Z,90.70
2019-01-30T11:42:21.662Z,90.60
2019-01-30T11:42:57.570Z,90.60
2019-01-30T11:43:33.242Z,90.60
2019-01-30T11:44:08.911Z,90.60
2019-01-30T11:44:44.554Z,90.50
2019-01-30T11:45:28.567Z,90.60
2019-01-30T11:46:04.235Z,90.50
2019-01-30T11:46:40.180Z,90.50
2019-01-30T11:47:15.850Z,90.60
2019-01-30T11:47:51.503Z,90.90
2019-01-30T11:48:27.188Z,90.90
2019-01-30T11:49:02.832Z,91.00
2019-01-30T11:49:38.502Z,91.20
2019-01-30T11:50:14.321Z,91.00
2019-01-30T11:50:49.991Z,90.70
2019-01-30T11:51:25.619Z,90.50
2019-01-30T11:52:01.253Z,90.70
2019-01-30T11:52:36.947Z,90.40
2019-01-30T11:53:12.615Z,90.40
2019-01-30T11:53:48.267Z,90.40
2019-01-30T11:54:24.268Z,90.30
2019-01-30T11:54:59.923Z,90.00
2019-01-30T11:55:35.851Z,90.00
2019-01-30T11:56:11.651Z,90.10
2019-01-30T11:56:47.735Z,90.20
2019-01-30T11:57:24.308Z,90.00
2019-01-30T11:57:59.947Z,89.50
2019-01-30T11:58:35.584Z,89.50
2019-01-30T11:59:11.349Z,89.60
2019-01-30T11:59:47.277Z,89.80
2019-01-30T12:00:27.573Z,89.90
2019-01-30T12:01:04.500Z,90.00
2019-01-30T12:01:40.202Z,90.00
2019-01-30T12:02:15.854Z,89.70
2019-01-30T12:02:51.486Z,90.10
2019-01-30T12:03:27.155Z,90.10
2019-01-30T12:04:02.797Z,90.10
2019-01-30T12:04:38.738Z,90.30
2019-01-30T12:05:14.985Z,90.40
2019-01-30T12:05:50.654Z,90.20
2019-01-30T12:06:26.835Z,90.10
2019-01-30T12:07:03.692Z,90.00
2019-01-30T12:07:39.340Z,90.10
2019-01-30T12:08:15.063Z,90.40
2019-01-30T12:08:50.994Z,90.60
2019-01-30T12:09:26.684Z,90.60
2019-01-30T12:10:02.340Z,90.60
2019-01-30T12:10:39.546Z,90.60
2019-01-30T12:11:15.202Z,90.70
2019-01-30T12:11:50.838Z,90.80
2019-01-30T12:12:26.780Z,90.90
2019-01-30T12:13:02.450Z,90.70
2019-01-30T12:13:38.754Z,90.70
2019-01-30T12:14:14.418Z,90.60
2019-01-30T12:14:50.067Z,90.50
2019-01-30T12:15:25.714Z,90.30
2019-01-30T12:16:01.388Z,90.30
2019-01-30T12:16:37.075Z,90.30
2019-01-30T12:17:12.870Z,90.50
2019-01-30T12:17:48.588Z,90.60
2019-01-30T12:18:24.232Z,90.70
2019-01-30T12:18:59.874Z,90.70
2019-01-30T12:19:36.860Z,90.70
2019-01-30T12:20:12.528Z,90.80
2019-01-30T12:20:48.183Z,90.70
2019-01-30T12:21:23.823Z,90.70
2019-01-30T12:21:59.798Z,90.60
2019-01-30T12:22:35.440Z,90.60
2019-01-30T12:23:11.196Z,90.70
2019-01-30T12:23:47.504Z,90.70
2019-01-30T12:24:23.458Z,90.70
2019-01-30T12:24:59.164Z,90.60
2019-01-30T12:25:34.836Z,90.40
2019-01-30T12:26:10.483Z,90.40
2019-01-30T12:26:46.144Z,90.50
2019-01-30T12:27:21.778Z,90.70
2019-01-30T12:27:57.455Z,90.60
2019-01-30T12:28:33.127Z,90.40
2019-01-30T12:29:08.771Z,90.40
2019-01-30T12:29:44.440Z,90.20
2019-01-30T12:30:22.948Z,90.20
2019-01-30T12:30:58.628Z,90.20
2019-01-30T12:31:34.567Z,90.10
2019-01-30T12:32:11.952Z,90.00
2019-01-30T12:32:47.598Z,89.90
2019-01-30T12:33:23.303Z,89.70
2019-01-30T12:33:59.249Z,90.00
2019-01-30T12:34:35.970Z,90.10
2019-01-30T12:35:11.614Z,90.20
2019-01-30T12:35:47.642Z,90.50
2019-01-30T12:36:23.386Z,90.10
2019-01-30T12:36:59.031Z,90.20
2019-01-30T12:37:34.768Z,90.30
2019-01-30T12:38:10.767Z,90.40
2019-01-30T12:38:47.388Z,90.50
2019-01-30T12:39:23.346Z,90.60
2019-01-30T12:39:58.984Z,90.70
2019-01-30T12:40:34.660Z,90.60
2019-01-30T12:41:10.382Z,90.40
2019-01-30T12:41:46.102Z,90.40
2019-01-30T12:42:22.743Z,90.30
2019-01-30T12:42:58.404Z,90.30
2019-01-30T12:43:34.856Z,90.50
2019-01-30T12:44:10.600Z,90.50
2019-01-30T12:44:46.515Z,90.40
2019-01-30T12:45:29.494Z,90.30
2019-01-30T12:46:05.195Z,90.10
2019-01-30T12:46:40.847Z,90.20
2019-01-30T12:47:19.918Z,90.30
2019-01-30T12:47:53.906Z,90.20
2019-01-30T12:48:29.535Z,90.20
2019-01-30T12:49:05.479Z,90.20
2019-01-30T12:49:41.120Z,90.10
2019-01-30T12:50:16.784Z,90.30
2019-01-30T12:50:52.418Z,90.30
2019-01-30T12:51:28.064Z,90.20
2019-01-30T12:52:04.072Z,90.20
2019-01-30T12:52:39.750Z,90.40
2019-01-30T12:53:15.433Z,90.40
2019-01-30T12:53:51.079Z,90.20
2019-01-30T12:54:26.748Z,90.30
2019-01-30T12:55:02.394Z,90.60
2019-01-30T12:55:38.047Z,90.60
2019-01-30T12:56:13.699Z,90.60
2019-01-30T12:56:49.363Z,90.30
2019-01-30T12:57:25.039Z,90.10
2019-01-30T12:58:00.684Z,90.10
2019-01-30T12:58:36.599Z,89.90
2019-01-30T12:59:12.266Z,89.50
2019-01-30T12:59:48.004Z,89.70
2019-01-30T13:00:25.600Z,89.70
2019-01-30T13:01:01.240Z,89.50
2019-01-30T13:01:37.231Z,88.90
2019-01-30T13:02:13.158Z,89.40
2019-01-30T13:02:49.249Z,89.80
2019-01-30T13:03:24.948Z,90.00
2019-01-30T13:04:00.985Z,90.20
2019-01-30T13:04:38.800Z,90.10
2019-01-30T13:05:14.024Z,90.30
2019-01-30T13:05:49.732Z,90.70
2019-01-30T13:06:25.370Z,90.40
2019-01-30T13:07:01.063Z,90.10
2019-01-30T13:07:36.691Z,90.30
2019-01-30T13:08:12.335Z,90.50
2019-01-30T13:08:47.983Z,90.70
2019-01-30T13:09:23.632Z,90.70
2019-01-30T13:09:59.310Z,90.60
2019-01-30T13:10:34.959Z,90.70
2019-01-30T13:11:10.648Z,90.70
2019-01-30T13:11:46.282Z,90.70
2019-01-30T13:12:21.924Z,90.50
2019-01-30T13:12:57.634Z,90.30
2019-01-30T13:13:33.716Z,90.10
2019-01-30T13:14:09.609Z,90.10
2019-01-30T13:14:45.560Z,89.70
2019-01-30T13:15:22.429Z,90.10
2019-01-30T13:15:58.055Z,90.40
2019-01-30T13:16:33.862Z,90.30
2019-01-30T13:17:11.248Z,90.20
2019-01-30T13:17:46.948Z,90.30
2019-01-30T13:18:22.627Z,90.00
2019-01-30T13:18:58.554Z,89.80
2019-01-30T13:19:34.196Z,89.50
2019-01-30T13:20:13.123Z,89.30
2019-01-30T13:20:48.749Z,89.20
2019-01-30T13:21:24.373Z,89.40
2019-01-30T13:22:00.070Z,89.10
2019-01-30T13:22:35.774Z,89.00
2019-01-30T13:23:11.426Z,89.10
2019-01-30T13:23:47.049Z,88.90
2019-01-30T13:24:22.679Z,89.20
2019-01-30T13:24:58.316Z,89.10
2019-01-30T13:25:35.670Z,89.10
2019-01-30T13:26:12.286Z,89.30
2019-01-30T13:26:47.951Z,89.80
2019-01-30T13:27:23.612Z,89.80
2019-01-30T13:27:59.299Z,89.80
2019-01-30T13:28:34.944Z,90.00
2019-01-30T13:29:10.592Z,90.20
2019-01-30T13:29:46.235Z,90.30
2019-01-30T13:30:24.178Z,90.30
2019-01-30T13:30:59.819Z,90.30
2019-01-30T13:31:35.761Z,90.30
2019-01-30T13:32:11.422Z,90.20
2019-01-30T13:32:48.040Z,90.10
2019-01-30T13:33:23.719Z,89.90
2019-01-30T13:33:59.372Z,90.00
2019-01-30T13:34:35.029Z,90.10
2019-01-30T13:35:13.684Z,89.60
2019-01-30T13:35:49.326Z,89.60
2019-01-30T13:36:24.995Z,89.80
2019-01-30T13:37:00.774Z,89.70
2019-01-30T13:37:36.510Z,89.80
2019-01-30T13:38:12.151Z,89.30
2019-01-30T13:38:48.163Z,89.70
2019-01-30T13:39:24.075Z,90.10
2019-01-30T13:39:59.771Z,90.20
2019-01-30T13:40:37.172Z,90.40
2019-01-30T13:41:12.839Z,90.30
2019-01-30T13:41:48.484Z,90.00
2019-01-30T13:42:24.237Z,90.10
2019-01-30T13:43:00.178Z,90.20
2019-01-30T13:43:35.867Z,90.00
2019-01-30T13:44:11.791Z,90.00
2019-01-30T13:44:47.542Z,90.00
2019-01-30T13:45:23.885Z,89.50
2019-01-30T13:46:05.477Z,89.90
2019-01-30T13:46:37.167Z,90.20
2019-01-30T13:47:12.799Z,90.30
2019-01-30T13:47:48.505Z,90.00
2019-01-30T13:48:24.505Z,90.10
2019-01-30T13:49:00.430Z,90.00
2019-01-30T13:49:36.691Z,89.70
2019-01-30T13:50:18.326Z,89.30
2019-01-30T13:50:54.007Z,89.30
2019-01-30T13:51:29.684Z,89.30
2019-01-30T13:52:05.323Z,89.60
2019-01-30T13:52:40.979Z,90.00
2019-01-30T13:53:17.005Z,90.10
2019-01-30T13:53:52.805Z,90.10
2019-01-30T13:54:28.467Z,90.10
2019-01-30T13:55:04.550Z,90.30
2019-01-30T13:55:40.284Z,90.50
2019-01-30T13:56:16.047Z,90.50
2019-01-30T13:56:51.712Z,90.60
2019-01-30T13:57:27.423Z,90.60
2019-01-30T13:58:05.871Z,90.60
2019-01-30T13:58:42.715Z,90.40
2019-01-30T13:59:18.572Z,90.30
2019-01-30T13:59:54.301Z,90.50
2019-01-30T14:00:31.990Z,90.70
2019-01-30T14:01:17.183Z,90.80
2019-01-30T14:01:45.272Z,90.90
2019-01-30T14:02:21.236Z,90.70
2019-01-30T14:02:56.971Z,90.70
2019-01-30T14:03:32.632Z,90.80
2019-01-30T14:04:08.276Z,90.90
2019-01-30T14:04:44.274Z,91.10
2019-01-30T14:05:19.932Z,90.90
2019-01-30T14:05:55.959Z,91.00
2019-01-30T14:06:31.893Z,90.90
2019-01-30T14:07:07.674Z,90.80
2019-01-30T14:07:43.555Z,90.90
2019-01-30T14:08:19.268Z,90.80
2019-01-30T14:08:55.079Z,90.80
2019-01-30T14:09:30.779Z,90.70
2019-01-30T14:10:06.471Z,90.40
2019-01-30T14:10:42.454Z,90.70
2019-01-30T14:11:18.200Z,91.00
2019-01-30T14:11:53.876Z,91.20
2019-01-30T14:12:29.608Z,91.30
2019-01-30T14:13:05.285Z,91.40
2019-01-30T14:13:41.062Z,91.40
2019-01-30T14:14:16.758Z,91.20
2019-01-30T14:14:52.411Z,91.10
2019-01-30T14:15:28.291Z,90.80
2019-01-30T14:16:03.944Z,90.70
2019-01-30T14:16:42.690Z,90.90
2019-01-30T14:17:18.479Z,91.00
2019-01-30T14:17:54.134Z,91.10
2019-01-30T14:18:30.099Z,91.10
2019-01-30T14:19:05.832Z,91.20
2019-01-30T14:19:41.519Z,91.20
2019-01-30T14:20:17.905Z,91.20
2019-01-30T14:20:53.668Z,91.30
2019-01-30T14:21:29.358Z,91.30
2019-01-30T14:22:05.070Z,91.30
2019-01-30T14:22:43.532Z,91.50
2019-01-30T14:23:19.306Z,91.40
2019-01-30T14:23:55.249Z,91.60
2019-01-30T14:24:31.316Z,91.60
2019-01-30T14:25:07.785Z,91.50
2019-01-30T14:25:43.417Z,91.60
2019-01-30T14:26:19.115Z,91.70
2019-01-30T14:26:54.851Z,91.70
2019-01-30T14:27:30.569Z,91.70
2019-01-30T14:28:06.485Z,91.70
2019-01-30T14:28:42.274Z,91.70
2019-01-30T14:29:18.048Z,91.70
2019-01-30T14:29:58.265Z,91.70
2019-01-30T14:30:33.569Z,91.80
2019-01-30T14:31:09.573Z,91.90
2019-01-30T14:31:45.457Z,91.90
2019-01-30T14:32:21.283Z,91.90
2019-01-30T14:32:57.114Z,91.90
2019-01-30T14:33:32.839Z,91.90
2019-01-30T14:34:08.616Z,92.00
2019-01-30T14:34:44.580Z,92.00
2019-01-30T14:35:20.859Z,92.00
2019-01-30T14:35:56.531Z,92.10
2019-01-30T14:36:32.908Z,92.10
2019-01-30T14:37:10.054Z,92.10
2019-01-30T14:37:45.776Z,92.10
2019-01-30T14:38:21.731Z,92.10
2019-01-30T14:38:57.459Z,92.10
2019-01-30T14:39:33.280Z,92.10
2019-01-30T14:40:10.251Z,92.00
2019-01-30T14:40:46.085Z,92.00
2019-01-30T14:41:21.883Z,92.10
2019-01-30T14:41:57.591Z,92.20
2019-01-30T14:42:33.387Z,92.30
2019-01-30T14:43:09.023Z,92.30
2019-01-30T14:43:44.717Z,92.30
2019-01-30T14:44:20.420Z,92.30
2019-01-30T14:44:56.086Z,92.30
2019-01-30T14:45:31.754Z,92.30
2019-01-30T14:46:07.469Z,92.30
2019-01-30T14:46:43.376Z,92.30
2019-01-30T14:47:19.039Z,92.30
2019-01-30T14:47:55.340Z,92.40
2019-01-30T14:48:31.055Z,92.30
2019-01-30T14:49:06.717Z,92.40
2019-01-30T14:49:42.395Z,92.40
2019-01-30T14:50:20.050Z,92.40
2019-01-30T14:50:55.770Z,92.40
2019-01-30T14:51:31.537Z,92.40
2019-01-30T14:52:07.211Z,92.40
2019-01-30T14:52:44.336Z,92.50
2019-01-30T14:53:20.165Z,92.50
2019-01-30T14:53:56.158Z,92.50
2019-01-30T14:54:34.515Z,92.50
2019-01-30T14:55:10.437Z,92.50
2019-01-30T14:55:46.430Z,92.60
2019-01-30T14:56:22.316Z,92.50
2019-01-30T14:56:57.975Z,92.50
2019-01-30T14:57:33.612Z,92.50
2019-01-30T14:58:09.612Z,92.60
2019-01-30T14:58:45.898Z,92.60
2019-01-30T14:59:21.587Z,92.60
2019-01-30T14:59:57.301Z,92.60
2019-01-30T15:00:33.133Z,92.60
2019-01-30T15:01:08.872Z,92.60
2019-01-30T15:01:44.567Z,92.60
2019-01-30T15:02:20.344Z,92.60
2019-01-30T15:02:56.444Z,92.60
2019-01-30T15:03:32.171Z,92.60
2019-01-30T15:04:08.160Z,92.60
2019-01-30T15:04:43.833Z,92.60
2019-01-30T15:05:22.365Z,92.60
2019-01-30T15:05:57.391Z,92.60
2019-01-30T15:06:33.063Z,92.60
2019-01-30T15:07:08.724Z,92.70
2019-01-30T15:07:44.493Z,92.70
2019-01-30T15:08:20.119Z,92.70
2019-01-30T15:08:55.788Z,92.70
2019-01-30T15:09:31.521Z,92.70
2019-01-30T15:10:08.417Z,92.80
2019-01-30T15:10:44.148Z,92.70
2019-01-30T15:11:19.846Z,92.70
2019-01-30T15:11:55.716Z,92.70
2019-01-30T15:12:31.529Z,92.80
2019-01-30T15:13:07.649Z,92.80
2019-01-30T15:13:43.502Z,92.80
2019-01-30T15:14:19.554Z,92.80
2019-01-30T15:14:55.222Z,92.80
2019-01-30T15:15:31.716Z,92.80
2019-01-30T15:16:07.438Z,92.80
2019-01-30T15:16:43.147Z,92.80
2019-01-30T15:17:19.846Z,92.70
2019-01-30T15:17:55.497Z,92.80
2019-01-30T15:18:31.112Z,92.80
2019-01-30T15:19:06.842Z,92.80
2019-01-30T15:19:42.549Z,92.80
2019-01-30T15:20:20.231Z,92.80
2019-01-30T15:20:56.254Z,92.90
2019-01-30T15:21:32.275Z,92.80
2019-01-30T15:22:08.164Z,92.90
2019-01-30T15:22:43.804Z,92.90
2019-01-30T15:23:19.451Z,92.90
2019-01-30T15:23:55.123Z,92.90
2019-01-30T15:24:30.782Z,93.30
2019-01-30T15:25:07.256Z,93.30
2019-01-30T15:25:42.907Z,93.00
2019-01-30T15:26:18.541Z,93.00
2019-01-30T15:26:54.453Z,93.00
2019-01-30T15:27:30.341Z,93.00
2019-01-30T15:28:06.404Z,93.00
2019-01-30T15:28:42.414Z,93.40
2019-01-30T15:29:18.149Z,93.00
2019-01-30T15:29:55.334Z,93.00
2019-01-30T15:30:34.096Z,93.00
2019-01-30T15:31:10.175Z,93.00
2019-01-30T15:31:45.826Z,93.00
2019-01-30T15:32:21.642Z,93.00
2019-01-30T15:32:57.284Z,93.00
2019-01-30T15:33:33.192Z,93.00
2019-01-30T15:34:08.836Z,93.00
2019-01-30T15:34:44.791Z,93.00
2019-01-30T15:35:20.440Z,93.10
2019-01-30T15:35:56.145Z,93.10
2019-01-30T15:36:31.831Z,93.10
2019-01-30T15:37:07.458Z,93.10
2019-01-30T15:37:43.475Z,93.10
2019-01-30T15:38:20.845Z,93.10
2019-01-30T15:38:57.767Z,93.20
2019-01-30T15:39:33.500Z,93.10
2019-01-30T15:40:10.694Z,93.20
2019-01-30T15:40:47.828Z,93.10
2019-01-30T15:41:23.517Z,93.10
2019-01-30T15:41:59.238Z,93.10
2019-01-30T15:42:34.922Z,93.50
2019-01-30T15:43:10.824Z,93.10
2019-01-30T15:43:46.478Z,93.10
2019-01-30T15:44:22.138Z,93.10
2019-01-30T15:44:57.849Z,93.10
2019-01-30T15:45:33.599Z,93.10
2019-01-30T15:46:09.500Z,93.20
2019-01-30T15:46:45.156Z,93.20
2019-01-30T15:47:20.792Z,93.20
2019-01-30T15:47:56.807Z,93.20
2019-01-30T15:48:34.255Z,93.20
2019-01-30T15:49:09.928Z,93.20
2019-01-30T15:49:45.597Z,93.10
2019-01-30T15:50:26.214Z,93.60
2019-01-30T15:51:01.860Z,93.20
2019-01-30T15:51:37.503Z,93.30
2019-01-30T15:52:13.142Z,93.30
2019-01-30T15:52:48.842Z,93.20
2019-01-30T15:53:26.010Z,93.20
2019-01-30T15:54:01.660Z,93.20
2019-01-30T15:54:37.342Z,93.30
2019-01-30T15:55:14.120Z,93.30
2019-01-30T15:55:50.220Z,93.30
2019-01-30T15:56:25.869Z,93.30
2019-01-30T15:57:01.535Z,93.30
2019-01-30T15:57:37.207Z,93.30
2019-01-30T15:58:13.011Z,93.20
2019-01-30T15:58:48.670Z,93.10
2019-01-30T15:59:24.365Z,93.00
2019-01-30T16:00:00.336Z,93.00
2019-01-30T16:00:45.367Z,93.00
2019-01-30T16:01:41.747Z,93.10
2019-01-30T16:02:17.481Z,93.10
2019-01-30T16:02:53.462Z,93.20
2019-01-30T16:03:29.147Z,93.20
2019-01-30T16:04:06.129Z,93.10
2019-01-30T16:04:41.910Z,93.10
2019-01-30T16:05:17.540Z,93.10
2019-01-30T16:05:53.196Z,93.10
2019-01-30T16:06:28.920Z,93.10
2019-01-30T16:07:04.642Z,93.60
2019-01-30T16:07:41.364Z,93.20
2019-01-30T16:08:17.130Z,93.20
2019-01-30T16:08:53.264Z,93.20
2019-01-30T16:09:29.287Z,93.20
2019-01-30T16:10:06.428Z,93.10
2019-01-30T16:10:42.272Z,93.10
2019-01-30T16:11:17.970Z,93.10
2019-01-30T16:11:53.608Z,93.20
2019-01-30T16:12:29.303Z,93.10
2019-01-30T16:13:05.186Z,93.10
2019-01-30T16:13:40.991Z,93.10
2019-01-30T16:14:16.885Z,93.10
2019-01-30T16:14:52.623Z,93.10
2019-01-30T16:15:31.089Z,93.10
2019-01-30T16:16:07.504Z,93.10
2019-01-30T16:16:43.228Z,93.10
2019-01-30T16:17:18.878Z,93.10
2019-01-30T16:17:54.528Z,93.10
2019-01-30T16:18:30.204Z,93.10
2019-01-30T16:19:07.659Z,93.10
2019-01-30T16:19:44.399Z,93.10
2019-01-30T16:20:20.050Z,93.00
2019-01-30T16:20:55.696Z,93.00
2019-01-30T16:21:31.730Z,93.10
2019-01-30T16:22:10.536Z,93.40
2019-01-30T16:22:46.512Z,93.10
2019-01-30T16:23:22.220Z,93.20
2019-01-30T16:23:57.940Z,93.20
2019-01-30T16:24:33.716Z,93.20
2019-01-30T16:25:09.587Z,93.20
2019-01-30T16:25:45.512Z,93.20
2019-01-30T16:26:22.543Z,93.20
2019-01-30T16:26:58.233Z,93.30
2019-01-30T16:27:33.920Z,93.30
2019-01-30T16:28:10.870Z,93.30
2019-01-30T16:28:46.582Z,93.20
2019-01-30T16:29:22.220Z,93.30
2019-01-30T16:29:57.867Z,93.60
2019-01-30T16:30:33.566Z,93.30
2019-01-30T16:31:09.520Z,93.30
2019-01-30T16:31:45.244Z,93.30
2019-01-30T16:32:23.923Z,93.30
2019-01-30T16:33:00.058Z,93.30
2019-01-30T16:33:35.748Z,93.50
2019-01-30T16:34:11.447Z,93.30
2019-01-30T16:34:47.129Z,93.20
2019-01-30T16:35:27.856Z,93.20
2019-01-30T16:36:03.841Z,93.20
2019-01-30T16:36:39.988Z,93.20
2019-01-30T16:37:15.675Z,93.20
2019-01-30T16:37:51.421Z,93.20
2019-01-30T16:38:27.327Z,93.10
2019-01-30T16:39:05.150Z,93.20
2019-01-30T16:39:42.267Z,93.10
2019-01-30T16:40:17.953Z,93.10
2019-01-30T16:40:55.343Z,93.10
2019-01-30T16:41:30.982Z,93.10
2019-01-30T16:42:06.871Z,93.10
2019-01-30T16:42:42.527Z,93.10
2019-01-30T16:43:18.225Z,93.10
2019-01-30T16:43:54.880Z,93.10
2019-01-30T16:44:30.523Z,93.10
2019-01-30T16:45:08.389Z,93.10
2019-01-30T16:45:44.211Z,93.10
2019-01-30T16:46:20.614Z,93.10
2019-01-30T16:46:56.424Z,93.10
2019-01-30T16:47:32.203Z,93.10
2019-01-30T16:48:08.290Z,93.10
2019-01-30T16:48:43.532Z,93.20
2019-01-30T16:49:19.519Z,93.20
2019-01-30T16:49:55.175Z,93.20
2019-01-30T16:50:30.820Z,93.20
2019-01-30T16:51:06.486Z,93.20
2019-01-30T16:51:42.397Z,93.20
2019-01-30T16:52:18.738Z,93.10
2019-01-30T16:52:54.573Z,93.10
2019-01-30T16:53:30.753Z,93.10
2019-01-30T16:54:06.727Z,93.50
2019-01-30T16:54:42.379Z,93.10
2019-01-30T16:55:18.047Z,93.10
2019-01-30T16:55:53.716Z,93.10
2019-01-30T16:56:29.388Z,93.10
2019-01-30T16:57:05.023Z,93.10
2019-01-30T16:57:40.919Z,93.10